sensor_id;sensor_type;location;lat;lon;timestamp;P1;durP1;ratioP1;P2;durP2;ratioP2
41927;SDS011;27616;51.420;6.788;2024-03-17T00:02:24;8.93;;;2.30;;
41927;SDS011;27616;51.420;6.788;2024-03-17T00:04:50;7.80;;;2.77;;
41927;SDS011;27616;51.420;6.788;2024-03-17T00:07:16;7.37;;;2.20;;
41927;SDS011;27616;51.420;6.788;2024-03-17T00:09:41;6.30;;;2.43;;
41927;SDS011;27616;51.420;6.788;2024-03-17T00:12:07;7.53;;;2.73;;
41927;SDS011;27616;51.420;6.788;2024-03-17T00:14:34;6.00;;;2.30;;
41927;SDS011;27616;51.420;6.788;2024-03-17T00:17:00;6.10;;;2.30;;
41927;SDS011;27616;51.420;6.788;2024-03-17T00:19:26;6.63;;;2.50;;
41927;SDS011;27616;51.420;6.788;2024-03-17T00:21:52;4.97;;;1.97;;
41927;SDS011;27616;51.420;6.788;2024-03-17T00:24:18;6.27;;;2.37;;
41927;SDS011;27616;51.420;6.788;2024-03-17T00:26:44;5.67;;;2.90;;
41927;SDS011;27616;51.420;6.788;2024-03-17T00:29:10;6.00;;;2.70;;
41927;SDS011;27616;51.420;6.788;2024-03-17T00:31:36;8.27;;;3.00;;
41927;SDS011;27616;51.420;6.788;2024-03-17T00:34:02;8.97;;;3.13;;
41927;SDS011;27616;51.420;6.788;2024-03-17T00:36:29;8.03;;;3.07;;
41927;SDS011;27616;51.420;6.788;2024-03-17T00:38:55;8.33;;;2.83;;
41927;SDS011;27616;51.420;6.788;2024-03-17T00:41:21;8.33;;;2.90;;
41927;SDS011;27616;51.420;6.788;2024-03-17T00:43:48;5.90;;;3.00;;
41927;SDS011;27616;51.420;6.788;2024-03-17T00:46:17;10.60;;;3.20;;
41927;SDS011;27616;51.420;6.788;2024-03-17T00:48:47;7.40;;;3.10;;
41927;SDS011;27616;51.420;6.788;2024-03-17T00:51:14;9.43;;;3.50;;
41927;SDS011;27616;51.420;6.788;2024-03-17T00:53:40;9.67;;;3.77;;
41927;SDS011;27616;51.420;6.788;2024-03-17T00:56:05;8.20;;;3.50;;
41927;SDS011;27616;51.420;6.788;2024-03-17T00:58:31;7.27;;;3.33;;
41927;SDS011;27616;51.420;6.788;2024-03-17T01:00:57;5.80;;;3.00;;
41927;SDS011;27616;51.420;6.788;2024-03-17T01:03:22;9.00;;;3.10;;
41927;SDS011;27616;51.420;6.788;2024-03-17T01:05:48;6.57;;;3.40;;
41927;SDS011;27616;51.420;6.788;2024-03-17T01:08:17;8.73;;;3.05;;
41927;SDS011;27616;51.420;6.788;2024-03-17T01:10:44;7.93;;;2.63;;
41927;SDS011;27616;51.420;6.788;2024-03-17T01:13:10;6.70;;;2.97;;
41927;SDS011;27616;51.420;6.788;2024-03-17T01:15:36;6.17;;;2.60;;
41927;SDS011;27616;51.420;6.788;2024-03-17T01:18:04;8.37;;;2.97;;
41927;SDS011;27616;51.420;6.788;2024-03-17T01:20:31;7.80;;;3.00;;
41927;SDS011;27616;51.420;6.788;2024-03-17T01:22:58;6.87;;;2.80;;
41927;SDS011;27616;51.420;6.788;2024-03-17T01:25:24;5.53;;;3.00;;
41927;SDS011;27616;51.420;6.788;2024-03-17T01:27:54;4.50;;;2.70;;
41927;SDS011;27616;51.420;6.788;2024-03-17T01:30:21;5.93;;;2.77;;
41927;SDS011;27616;51.420;6.788;2024-03-17T01:32:47;7.77;;;2.60;;
41927;SDS011;27616;51.420;6.788;2024-03-17T01:35:14;5.93;;;2.87;;
41927;SDS011;27616;51.420;6.788;2024-03-17T01:37:40;8.63;;;2.80;;
41927;SDS011;27616;51.420;6.788;2024-03-17T01:40:06;7.03;;;2.60;;
41927;SDS011;27616;51.420;6.788;2024-03-17T01:42:35;6.07;;;2.60;;
41927;SDS011;27616;51.420;6.788;2024-03-17T01:45:20;5.73;;;2.50;;
41927;SDS011;27616;51.420;6.788;2024-03-17T01:47:59;6.83;;;2.70;;
41927;SDS011;27616;51.420;6.788;2024-03-17T01:50:28;9.37;;;3.10;;
41927;SDS011;27616;51.420;6.788;2024-03-17T01:53:00;8.90;;;3.13;;
41927;SDS011;27616;51.420;6.788;2024-03-17T01:55:29;7.30;;;2.83;;
41927;SDS011;27616;51.420;6.788;2024-03-17T01:57:57;4.53;;;2.60;;
41927;SDS011;27616;51.420;6.788;2024-03-17T02:00:23;8.40;;;2.43;;
41927;SDS011;27616;51.420;6.788;2024-03-17T02:02:49;6.13;;;2.83;;
41927;SDS011;27616;51.420;6.788;2024-03-17T02:05:14;6.83;;;2.40;;
41927;SDS011;27616;51.420;6.788;2024-03-17T02:07:40;6.80;;;2.30;;
41927;SDS011;27616;51.420;6.788;2024-03-17T02:10:06;4.30;;;2.40;;
41927;SDS011;27616;51.420;6.788;2024-03-17T02:12:33;8.03;;;2.60;;
41927;SDS011;27616;51.420;6.788;2024-03-17T02:15:00;6.53;;;2.60;;
41927;SDS011;27616;51.420;6.788;2024-03-17T02:17:26;5.97;;;2.30;;
41927;SDS011;27616;51.420;6.788;2024-03-17T02:19:55;9.77;;;2.57;;
41927;SDS011;27616;51.420;6.788;2024-03-17T02:22:20;4.80;;;2.47;;
41927;SDS011;27616;51.420;6.788;2024-03-17T02:24:46;5.00;;;2.80;;
41927;SDS011;27616;51.420;6.788;2024-03-17T02:27:12;5.83;;;2.70;;
41927;SDS011;27616;51.420;6.788;2024-03-17T02:29:38;7.33;;;2.23;;
41927;SDS011;27616;51.420;6.788;2024-03-17T02:32:04;7.73;;;2.70;;
41927;SDS011;27616;51.420;6.788;2024-03-17T02:34:35;6.33;;;2.50;;
41927;SDS011;27616;51.420;6.788;2024-03-17T02:37:01;9.88;;;2.72;;
41927;SDS011;27616;51.420;6.788;2024-03-17T02:39:29;9.00;;;2.53;;
41927;SDS011;27616;51.420;6.788;2024-03-17T02:42:03;6.03;;;2.50;;
41927;SDS011;27616;51.420;6.788;2024-03-17T02:44:30;8.07;;;2.77;;
41927;SDS011;27616;51.420;6.788;2024-03-17T02:46:57;9.20;;;2.93;;
41927;SDS011;27616;51.420;6.788;2024-03-17T02:49:27;4.72;;;2.53;;
41927;SDS011;27616;51.420;6.788;2024-03-17T02:52:00;5.70;;;2.30;;
41927;SDS011;27616;51.420;6.788;2024-03-17T02:54:26;6.33;;;2.80;;
41927;SDS011;27616;51.420;6.788;2024-03-17T02:56:51;9.23;;;2.90;;
41927;SDS011;27616;51.420;6.788;2024-03-17T02:59:17;10.13;;;3.00;;
41927;SDS011;27616;51.420;6.788;2024-03-17T03:01:43;7.20;;;2.70;;
41927;SDS011;27616;51.420;6.788;2024-03-17T03:04:10;4.53;;;2.63;;
41927;SDS011;27616;51.420;6.788;2024-03-17T03:06:35;7.23;;;2.93;;
41927;SDS011;27616;51.420;6.788;2024-03-17T03:09:03;6.63;;;2.50;;
41927;SDS011;27616;51.420;6.788;2024-03-17T03:11:30;7.37;;;2.93;;
41927;SDS011;27616;51.420;6.788;2024-03-17T03:13:56;6.87;;;2.67;;
41927;SDS011;27616;51.420;6.788;2024-03-17T03:16:21;6.13;;;2.70;;
41927;SDS011;27616;51.420;6.788;2024-03-17T03:18:47;8.20;;;3.30;;
41927;SDS011;27616;51.420;6.788;2024-03-17T03:21:15;7.17;;;3.20;;
41927;SDS011;27616;51.420;6.788;2024-03-17T03:23:40;6.33;;;3.07;;
41927;SDS011;27616;51.420;6.788;2024-03-17T03:26:06;6.37;;;3.23;;
41927;SDS011;27616;51.420;6.788;2024-03-17T03:28:34;7.83;;;2.90;;
41927;SDS011;27616;51.420;6.788;2024-03-17T03:31:00;11.13;;;3.50;;
41927;SDS011;27616;51.420;6.788;2024-03-17T03:33:27;9.40;;;3.03;;
41927;SDS011;27616;51.420;6.788;2024-03-17T03:35:53;8.67;;;3.07;;
41927;SDS011;27616;51.420;6.788;2024-03-17T03:38:20;9.83;;;3.57;;
41927;SDS011;27616;51.420;6.788;2024-03-17T03:40:47;8.37;;;3.67;;
41927;SDS011;27616;51.420;6.788;2024-03-17T03:43:15;10.20;;;3.38;;
41927;SDS011;27616;51.420;6.788;2024-03-17T03:45:41;7.90;;;3.50;;
41927;SDS011;27616;51.420;6.788;2024-03-17T03:48:07;8.30;;;3.50;;
41927;SDS011;27616;51.420;6.788;2024-03-17T03:50:33;7.60;;;3.27;;
41927;SDS011;27616;51.420;6.788;2024-03-17T03:53:00;9.43;;;4.13;;
41927;SDS011;27616;51.420;6.788;2024-03-17T03:55:25;12.47;;;4.00;;
41927;SDS011;27616;51.420;6.788;2024-03-17T03:57:51;10.37;;;4.30;;
41927;SDS011;27616;51.420;6.788;2024-03-17T04:00:19;10.60;;;4.47;;
41927;SDS011;27616;51.420;6.788;2024-03-17T04:02:49;10.30;;;4.25;;
41927;SDS011;27616;51.420;6.788;2024-03-17T04:05:16;8.80;;;3.67;;
41927;SDS011;27616;51.420;6.788;2024-03-17T04:07:45;11.35;;;3.90;;
41927;SDS011;27616;51.420;6.788;2024-03-17T04:10:12;11.13;;;3.63;;
41927;SDS011;27616;51.420;6.788;2024-03-17T04:12:38;11.97;;;4.00;;
41927;SDS011;27616;51.420;6.788;2024-03-17T04:15:04;8.17;;;4.07;;
41927;SDS011;27616;51.420;6.788;2024-03-17T04:17:35;9.53;;;3.80;;
41927;SDS011;27616;51.420;6.788;2024-03-17T04:20:02;12.57;;;3.83;;
41927;SDS011;27616;51.420;6.788;2024-03-17T04:22:29;10.23;;;3.97;;
41927;SDS011;27616;51.420;6.788;2024-03-17T04:24:55;10.40;;;4.00;;
41927;SDS011;27616;51.420;6.788;2024-03-17T04:27:31;11.50;;;4.10;;
41927;SDS011;27616;51.420;6.788;2024-03-17T04:29:57;7.80;;;3.70;;
41927;SDS011;27616;51.420;6.788;2024-03-17T04:32:24;9.27;;;4.13;;
41927;SDS011;27616;51.420;6.788;2024-03-17T04:34:53;13.50;;;3.60;;
41927;SDS011;27616;51.420;6.788;2024-03-17T04:37:18;10.87;;;3.80;;
41927;SDS011;27616;51.420;6.788;2024-03-17T04:39:45;12.63;;;4.47;;
41927;SDS011;27616;51.420;6.788;2024-03-17T04:42:13;10.40;;;4.00;;
41927;SDS011;27616;51.420;6.788;2024-03-17T04:44:40;11.07;;;4.43;;
41927;SDS011;27616;51.420;6.788;2024-03-17T04:47:06;8.27;;;3.80;;
41927;SDS011;27616;51.420;6.788;2024-03-17T04:49:38;10.87;;;3.80;;
41927;SDS011;27616;51.420;6.788;2024-03-17T04:52:05;9.03;;;4.03;;
41927;SDS011;27616;51.420;6.788;2024-03-17T04:57:00;12.37;;;3.90;;
41927;SDS011;27616;51.420;6.788;2024-03-17T04:59:26;10.13;;;4.27;;
41927;SDS011;27616;51.420;6.788;2024-03-17T05:01:52;9.20;;;4.33;;
41927;SDS011;27616;51.420;6.788;2024-03-17T05:04:18;12.90;;;4.47;;
41927;SDS011;27616;51.420;6.788;2024-03-17T05:06:44;9.63;;;3.90;;
41927;SDS011;27616;51.420;6.788;2024-03-17T05:09:14;9.93;;;4.57;;
41927;SDS011;27616;51.420;6.788;2024-03-17T05:11:43;7.20;;;3.92;;
41927;SDS011;27616;51.420;6.788;2024-03-17T05:14:09;9.93;;;4.27;;
41927;SDS011;27616;51.420;6.788;2024-03-17T05:16:35;10.33;;;4.50;;
41927;SDS011;27616;51.420;6.788;2024-03-17T05:19:01;8.83;;;3.90;;
41927;SDS011;27616;51.420;6.788;2024-03-17T05:21:26;11.17;;;4.10;;
41927;SDS011;27616;51.420;6.788;2024-03-17T05:23:55;9.50;;;3.87;;
41927;SDS011;27616;51.420;6.788;2024-03-17T05:26:22;9.97;;;3.97;;
41927;SDS011;27616;51.420;6.788;2024-03-17T05:28:49;8.70;;;4.10;;
41927;SDS011;27616;51.420;6.788;2024-03-17T05:31:15;9.73;;;3.87;;
41927;SDS011;27616;51.420;6.788;2024-03-17T05:33:43;9.33;;;3.70;;
41927;SDS011;27616;51.420;6.788;2024-03-17T05:36:11;11.45;;;4.30;;
41927;SDS011;27616;51.420;6.788;2024-03-17T05:38:37;8.70;;;3.77;;
41927;SDS011;27616;51.420;6.788;2024-03-17T05:41:03;9.03;;;3.67;;
41927;SDS011;27616;51.420;6.788;2024-03-17T05:43:31;10.50;;;3.80;;
41927;SDS011;27616;51.420;6.788;2024-03-17T05:46:12;7.17;;;3.60;;
41927;SDS011;27616;51.420;6.788;2024-03-17T05:48:39;6.17;;;3.20;;
41927;SDS011;27616;51.420;6.788;2024-03-17T05:51:05;6.97;;;3.07;;
41927;SDS011;27616;51.420;6.788;2024-03-17T05:53:32;9.17;;;3.43;;
41927;SDS011;27616;51.420;6.788;2024-03-17T05:56:01;10.73;;;4.10;;
41927;SDS011;27616;51.420;6.788;2024-03-17T05:58:27;10.10;;;3.83;;
41927;SDS011;27616;51.420;6.788;2024-03-17T06:00:53;10.83;;;4.03;;
41927;SDS011;27616;51.420;6.788;2024-03-17T06:03:19;12.00;;;3.53;;
41927;SDS011;27616;51.420;6.788;2024-03-17T06:05:44;7.90;;;3.43;;
41927;SDS011;27616;51.420;6.788;2024-03-17T06:08:13;9.70;;;3.50;;
41927;SDS011;27616;51.420;6.788;2024-03-17T06:10:43;8.70;;;3.50;;
41927;SDS011;27616;51.420;6.788;2024-03-17T06:13:10;6.57;;;3.17;;
41927;SDS011;27616;51.420;6.788;2024-03-17T06:15:38;10.23;;;4.07;;
41927;SDS011;27616;51.420;6.788;2024-03-17T06:18:04;10.20;;;4.20;;
41927;SDS011;27616;51.420;6.788;2024-03-17T06:20:33;9.55;;;3.60;;
41927;SDS011;27616;51.420;6.788;2024-03-17T06:22:59;11.07;;;3.93;;
41927;SDS011;27616;51.420;6.788;2024-03-17T06:25:25;8.83;;;3.47;;
41927;SDS011;27616;51.420;6.788;2024-03-17T06:27:51;7.17;;;3.20;;
41927;SDS011;27616;51.420;6.788;2024-03-17T06:30:17;8.73;;;3.53;;
41927;SDS011;27616;51.420;6.788;2024-03-17T06:32:44;5.80;;;2.80;;
41927;SDS011;27616;51.420;6.788;2024-03-17T06:35:10;10.13;;;2.90;;
41927;SDS011;27616;51.420;6.788;2024-03-17T06:37:36;8.93;;;3.20;;
41927;SDS011;27616;51.420;6.788;2024-03-17T06:40:03;6.70;;;3.17;;
41927;SDS011;27616;51.420;6.788;2024-03-17T06:42:30;6.03;;;3.47;;
41927;SDS011;27616;51.420;6.788;2024-03-17T06:44:56;6.47;;;3.30;;
41927;SDS011;27616;51.420;6.788;2024-03-17T06:47:22;6.77;;;3.17;;
41927;SDS011;27616;51.420;6.788;2024-03-17T06:49:48;8.07;;;3.70;;
41927;SDS011;27616;51.420;6.788;2024-03-17T06:52:13;7.27;;;3.30;;
41927;SDS011;27616;51.420;6.788;2024-03-17T06:54:39;6.07;;;2.90;;
41927;SDS011;27616;51.420;6.788;2024-03-17T06:57:04;7.83;;;3.13;;
41927;SDS011;27616;51.420;6.788;2024-03-17T06:59:34;5.80;;;2.90;;
41927;SDS011;27616;51.420;6.788;2024-03-17T07:01:59;6.35;;;2.72;;
41927;SDS011;27616;51.420;6.788;2024-03-17T07:04:26;5.23;;;2.10;;
41927;SDS011;27616;51.420;6.788;2024-03-17T07:06:51;6.67;;;2.70;;
41927;SDS011;27616;51.420;6.788;2024-03-17T07:09:17;5.53;;;2.27;;
41927;SDS011;27616;51.420;6.788;2024-03-17T07:11:43;9.40;;;2.93;;
41927;SDS011;27616;51.420;6.788;2024-03-17T07:14:10;6.57;;;2.40;;
41927;SDS011;27616;51.420;6.788;2024-03-17T07:16:35;4.53;;;2.30;;
41927;SDS011;27616;51.420;6.788;2024-03-17T07:19:01;4.73;;;2.37;;
41927;SDS011;27616;51.420;6.788;2024-03-17T07:21:27;6.83;;;2.93;;
41927;SDS011;27616;51.420;6.788;2024-03-17T07:23:53;4.87;;;2.40;;
41927;SDS011;27616;51.420;6.788;2024-03-17T07:26:19;4.83;;;1.90;;
41927;SDS011;27616;51.420;6.788;2024-03-17T07:28:44;4.63;;;2.43;;
41927;SDS011;27616;51.420;6.788;2024-03-17T07:31:10;3.77;;;2.20;;
41927;SDS011;27616;51.420;6.788;2024-03-17T07:33:36;2.83;;;1.90;;
41927;SDS011;27616;51.420;6.788;2024-03-17T07:36:02;5.30;;;1.90;;
41927;SDS011;27616;51.420;6.788;2024-03-17T07:38:30;3.23;;;1.90;;
41927;SDS011;27616;51.420;6.788;2024-03-17T07:40:57;5.33;;;2.40;;
41927;SDS011;27616;51.420;6.788;2024-03-17T07:43:33;4.80;;;2.23;;
41927;SDS011;27616;51.420;6.788;2024-03-17T07:46:01;5.13;;;2.10;;
41927;SDS011;27616;51.420;6.788;2024-03-17T07:48:29;4.60;;;2.10;;
41927;SDS011;27616;51.420;6.788;2024-03-17T07:51:00;3.20;;;1.70;;
41927;SDS011;27616;51.420;6.788;2024-03-17T07:53:29;5.30;;;1.80;;
41927;SDS011;27616;51.420;6.788;2024-03-17T07:55:58;3.53;;;1.65;;
41927;SDS011;27616;51.420;6.788;2024-03-17T07:58:24;2.73;;;1.80;;
41927;SDS011;27616;51.420;6.788;2024-03-17T08:00:51;3.80;;;1.63;;
41927;SDS011;27616;51.420;6.788;2024-03-17T08:03:18;3.80;;;1.60;;
41927;SDS011;27616;51.420;6.788;2024-03-17T08:05:47;4.47;;;1.70;;
41927;SDS011;27616;51.420;6.788;2024-03-17T08:08:16;2.80;;;1.40;;
41927;SDS011;27616;51.420;6.788;2024-03-17T08:10:42;2.33;;;1.33;;
41927;SDS011;27616;51.420;6.788;2024-03-17T08:13:08;4.13;;;1.57;;
41927;SDS011;27616;51.420;6.788;2024-03-17T08:15:38;4.10;;;1.30;;
41927;SDS011;27616;51.420;6.788;2024-03-17T08:18:04;3.73;;;1.60;;
41927;SDS011;27616;51.420;6.788;2024-03-17T08:20:35;2.90;;;1.45;;
41927;SDS011;27616;51.420;6.788;2024-03-17T08:23:02;3.50;;;1.60;;
41927;SDS011;27616;51.420;6.788;2024-03-17T08:25:28;2.70;;;1.30;;
41927;SDS011;27616;51.420;6.788;2024-03-17T08:27:54;2.57;;;1.30;;
41927;SDS011;27616;51.420;6.788;2024-03-17T08:30:19;2.75;;;1.45;;
41927;SDS011;27616;51.420;6.788;2024-03-17T08:32:45;2.47;;;1.60;;
41927;SDS011;27616;51.420;6.788;2024-03-17T08:35:10;3.30;;;1.70;;
41927;SDS011;27616;51.420;6.788;2024-03-17T08:37:36;4.47;;;1.40;;
41927;SDS011;27616;51.420;6.788;2024-03-17T08:40:02;3.17;;;1.73;;
41927;SDS011;27616;51.420;6.788;2024-03-17T08:42:28;3.05;;;1.38;;
41927;SDS011;27616;51.420;6.788;2024-03-17T08:44:53;4.88;;;1.40;;
41927;SDS011;27616;51.420;6.788;2024-03-17T08:47:19;3.97;;;1.77;;
41927;SDS011;27616;51.420;6.788;2024-03-17T08:49:45;3.90;;;1.50;;
41927;SDS011;27616;51.420;6.788;2024-03-17T08:52:10;3.55;;;1.67;;
41927;SDS011;27616;51.420;6.788;2024-03-17T08:54:36;3.70;;;1.50;;
41927;SDS011;27616;51.420;6.788;2024-03-17T08:57:02;2.70;;;1.70;;
41927;SDS011;27616;51.420;6.788;2024-03-17T08:59:27;3.05;;;1.40;;
41927;SDS011;27616;51.420;6.788;2024-03-17T09:01:53;4.03;;;1.73;;
41927;SDS011;27616;51.420;6.788;2024-03-17T09:04:19;2.08;;;1.42;;
41927;SDS011;27616;51.420;6.788;2024-03-17T09:06:44;2.40;;;1.60;;
41927;SDS011;27616;51.420;6.788;2024-03-17T09:09:10;3.40;;;1.40;;
41927;SDS011;27616;51.420;6.788;2024-03-17T09:11:38;4.07;;;1.70;;
41927;SDS011;27616;51.420;6.788;2024-03-17T09:14:04;3.43;;;1.53;;
41927;SDS011;27616;51.420;6.788;2024-03-17T09:16:29;2.28;;;1.10;;
41927;SDS011;27616;51.420;6.788;2024-03-17T09:18:57;4.63;;;2.20;;
41927;SDS011;27616;51.420;6.788;2024-03-17T09:21:22;2.93;;;1.50;;
41927;SDS011;27616;51.420;6.788;2024-03-17T09:23:48;5.07;;;1.70;;
41927;SDS011;27616;51.420;6.788;2024-03-17T09:26:15;4.17;;;1.53;;
41927;SDS011;27616;51.420;6.788;2024-03-17T09:28:42;3.40;;;1.47;;
41927;SDS011;27616;51.420;6.788;2024-03-17T09:31:09;3.70;;;1.57;;
41927;SDS011;27616;51.420;6.788;2024-03-17T09:33:36;3.47;;;1.87;;
41927;SDS011;27616;51.420;6.788;2024-03-17T09:36:05;3.70;;;1.43;;
41927;SDS011;27616;51.420;6.788;2024-03-17T09:38:32;5.07;;;2.60;;
41927;SDS011;27616;51.420;6.788;2024-03-17T09:40:59;2.83;;;1.57;;
41927;SDS011;27616;51.420;6.788;2024-03-17T09:43:29;7.83;;;3.30;;
41927;SDS011;27616;51.420;6.788;2024-03-17T09:45:58;6.67;;;2.30;;
41927;SDS011;27616;51.420;6.788;2024-03-17T09:48:27;3.80;;;1.90;;
41927;SDS011;27616;51.420;6.788;2024-03-17T09:50:54;3.28;;;1.50;;
41927;SDS011;27616;51.420;6.788;2024-03-17T09:53:24;3.47;;;1.75;;
41927;SDS011;27616;51.420;6.788;2024-03-17T09:55:52;3.65;;;1.45;;
41927;SDS011;27616;51.420;6.788;2024-03-17T09:58:21;3.13;;;1.67;;
41927;SDS011;27616;51.420;6.788;2024-03-17T10:00:47;5.00;;;1.70;;
41927;SDS011;27616;51.420;6.788;2024-03-17T10:06:17;5.88;;;1.70;;
41927;SDS011;27616;51.420;6.788;2024-03-17T10:11:11;5.05;;;1.80;;
41927;SDS011;27616;51.420;6.788;2024-03-17T10:13:38;2.85;;;1.67;;
41927;SDS011;27616;51.420;6.788;2024-03-17T10:16:04;4.25;;;1.80;;
41927;SDS011;27616;51.420;6.788;2024-03-17T10:18:30;6.10;;;1.90;;
41927;SDS011;27616;51.420;6.788;2024-03-17T10:20:56;4.82;;;2.20;;
41927;SDS011;27616;51.420;6.788;2024-03-17T10:23:23;3.80;;;1.52;;
41927;SDS011;27616;51.420;6.788;2024-03-17T10:25:49;8.20;;;3.53;;
41927;SDS011;27616;51.420;6.788;2024-03-17T10:28:16;6.30;;;3.28;;
41927;SDS011;27616;51.420;6.788;2024-03-17T10:30:56;4.72;;;2.42;;
41927;SDS011;27616;51.420;6.788;2024-03-17T10:33:23;4.05;;;1.80;;
41927;SDS011;27616;51.420;6.788;2024-03-17T10:35:59;4.43;;;1.70;;
41927;SDS011;27616;51.420;6.788;2024-03-17T10:38:26;3.85;;;1.77;;
41927;SDS011;27616;51.420;6.788;2024-03-17T10:40:52;3.47;;;1.73;;
41927;SDS011;27616;51.420;6.788;2024-03-17T10:43:19;3.13;;;1.80;;
41927;SDS011;27616;51.420;6.788;2024-03-17T10:45:49;5.43;;;1.98;;
41927;SDS011;27616;51.420;6.788;2024-03-17T10:48:17;4.30;;;1.67;;
41927;SDS011;27616;51.420;6.788;2024-03-17T10:50:46;4.00;;;1.40;;
41927;SDS011;27616;51.420;6.788;2024-03-17T10:53:15;3.13;;;1.63;;
41927;SDS011;27616;51.420;6.788;2024-03-17T10:55:51;4.70;;;1.80;;
41927;SDS011;27616;51.420;6.788;2024-03-17T10:58:34;3.47;;;1.55;;
41927;SDS011;27616;51.420;6.788;2024-03-17T11:01:01;3.92;;;1.65;;
41927;SDS011;27616;51.420;6.788;2024-03-17T11:03:33;3.47;;;2.08;;
41927;SDS011;27616;51.420;6.788;2024-03-17T11:06:03;3.60;;;1.95;;
41927;SDS011;27616;51.420;6.788;2024-03-17T11:08:30;4.05;;;1.88;;
41927;SDS011;27616;51.420;6.788;2024-03-17T11:10:58;4.30;;;1.90;;
41927;SDS011;27616;51.420;6.788;2024-03-17T11:13:24;6.03;;;1.77;;
41927;SDS011;27616;51.420;6.788;2024-03-17T11:15:51;5.65;;;2.30;;
41927;SDS011;27616;51.420;6.788;2024-03-17T11:23:57;5.60;;;2.42;;
41927;SDS011;27616;51.420;6.788;2024-03-17T11:26:27;4.38;;;1.98;;
41927;SDS011;27616;51.420;6.788;2024-03-17T11:28:57;6.53;;;2.08;;
41927;SDS011;27616;51.420;6.788;2024-03-17T11:31:41;2.80;;;1.83;;
41927;SDS011;27616;51.420;6.788;2024-03-17T11:34:25;3.33;;;1.85;;
41927;SDS011;27616;51.420;6.788;2024-03-17T11:36:53;4.97;;;2.10;;
41927;SDS011;27616;51.420;6.788;2024-03-17T11:39:19;5.15;;;2.08;;
41927;SDS011;27616;51.420;6.788;2024-03-17T11:41:50;3.55;;;1.80;;
41927;SDS011;27616;51.420;6.788;2024-03-17T11:47:03;5.07;;;2.13;;
41927;SDS011;27616;51.420;6.788;2024-03-17T11:49:31;5.38;;;2.15;;
41927;SDS011;27616;51.420;6.788;2024-03-17T11:54:38;3.50;;;1.90;;
41927;SDS011;27616;51.420;6.788;2024-03-17T11:57:08;6.10;;;2.22;;
41927;SDS011;27616;51.420;6.788;2024-03-17T11:59:47;4.32;;;2.00;;
41927;SDS011;27616;51.420;6.788;2024-03-17T12:04:46;6.18;;;2.22;;
41927;SDS011;27616;51.420;6.788;2024-03-17T12:07:13;4.18;;;2.00;;
41927;SDS011;27616;51.420;6.788;2024-03-17T12:09:41;5.07;;;2.10;;
41927;SDS011;27616;51.420;6.788;2024-03-17T12:12:26;3.35;;;1.70;;
41927;SDS011;27616;51.420;6.788;2024-03-17T12:15:02;4.75;;;2.22;;
41927;SDS011;27616;51.420;6.788;2024-03-17T12:17:38;6.63;;;2.15;;
41927;SDS011;27616;51.420;6.788;2024-03-17T12:20:04;4.88;;;1.80;;
41927;SDS011;27616;51.420;6.788;2024-03-17T12:22:30;5.28;;;1.83;;
41927;SDS011;27616;51.420;6.788;2024-03-17T12:25:01;5.20;;;2.40;;
41927;SDS011;27616;51.420;6.788;2024-03-17T12:27:27;4.68;;;2.05;;
41927;SDS011;27616;51.420;6.788;2024-03-17T12:29:54;5.40;;;1.92;;
41927;SDS011;27616;51.420;6.788;2024-03-17T12:32:21;5.00;;;2.22;;
41927;SDS011;27616;51.420;6.788;2024-03-17T12:34:50;4.37;;;2.00;;
41927;SDS011;27616;51.420;6.788;2024-03-17T12:37:26;4.30;;;1.77;;
41927;SDS011;27616;51.420;6.788;2024-03-17T12:40:01;4.13;;;1.88;;
41927;SDS011;27616;51.420;6.788;2024-03-17T12:42:28;3.65;;;1.88;;
41927;SDS011;27616;51.420;6.788;2024-03-17T12:44:58;4.10;;;1.90;;
41927;SDS011;27616;51.420;6.788;2024-03-17T12:47:26;3.90;;;1.67;;
41927;SDS011;27616;51.420;6.788;2024-03-17T12:49:56;4.35;;;2.17;;
41927;SDS011;27616;51.420;6.788;2024-03-17T12:52:27;4.90;;;2.10;;
41927;SDS011;27616;51.420;6.788;2024-03-17T12:55:00;2.88;;;1.77;;
41927;SDS011;27616;51.420;6.788;2024-03-17T12:57:46;3.65;;;2.10;;
41927;SDS011;27616;51.420;6.788;2024-03-17T13:00:31;4.88;;;2.35;;
41927;SDS011;27616;51.420;6.788;2024-03-17T13:03:07;4.68;;;1.98;;
41927;SDS011;27616;51.420;6.788;2024-03-17T13:05:33;3.65;;;1.73;;
41927;SDS011;27616;51.420;6.788;2024-03-17T13:07:59;3.22;;;1.80;;
41927;SDS011;27616;51.420;6.788;2024-03-17T13:10:26;4.43;;;1.83;;
41927;SDS011;27616;51.420;6.788;2024-03-17T13:13:02;4.57;;;1.95;;
41927;SDS011;27616;51.420;6.788;2024-03-17T13:15:33;4.97;;;2.17;;
41927;SDS011;27616;51.420;6.788;2024-03-17T13:20:29;5.35;;;2.03;;
41927;SDS011;27616;51.420;6.788;2024-03-17T13:22:55;5.00;;;2.20;;
41927;SDS011;27616;51.420;6.788;2024-03-17T13:25:23;6.88;;;2.05;;
41927;SDS011;27616;51.420;6.788;2024-03-17T13:27:51;4.15;;;1.70;;
41927;SDS011;27616;51.420;6.788;2024-03-17T13:30:19;4.03;;;2.03;;
41927;SDS011;27616;51.420;6.788;2024-03-17T13:32:49;4.03;;;1.52;;
41927;SDS011;27616;51.420;6.788;2024-03-17T13:35:20;6.40;;;2.05;;
41927;SDS011;27616;51.420;6.788;2024-03-17T13:37:48;4.38;;;1.90;;
41927;SDS011;27616;51.420;6.788;2024-03-17T13:40:15;2.88;;;1.80;;
41927;SDS011;27616;51.420;6.788;2024-03-17T13:42:47;3.70;;;2.10;;
41927;SDS011;27616;51.420;6.788;2024-03-17T13:45:16;4.63;;;2.00;;
41927;SDS011;27616;51.420;6.788;2024-03-17T13:47:46;4.82;;;1.95;;
41927;SDS011;27616;51.420;6.788;2024-03-17T13:50:14;4.50;;;1.95;;
41927;SDS011;27616;51.420;6.788;2024-03-17T13:52:39;5.32;;;2.17;;
41927;SDS011;27616;51.420;6.788;2024-03-17T13:55:06;4.43;;;1.75;;
41927;SDS011;27616;51.420;6.788;2024-03-17T13:57:43;4.80;;;2.08;;
41927;SDS011;27616;51.420;6.788;2024-03-17T14:00:10;3.40;;;1.90;;
41927;SDS011;27616;51.420;6.788;2024-03-17T14:02:41;6.82;;;2.20;;
41927;SDS011;27616;51.420;6.788;2024-03-17T14:05:14;6.07;;;1.92;;
41927;SDS011;27616;51.420;6.788;2024-03-17T14:07:41;5.70;;;1.98;;
41927;SDS011;27616;51.420;6.788;2024-03-17T14:10:07;3.45;;;2.13;;
41927;SDS011;27616;51.420;6.788;2024-03-17T14:12:35;4.53;;;1.98;;
41927;SDS011;27616;51.420;6.788;2024-03-17T14:15:02;3.42;;;1.70;;
41927;SDS011;27616;51.420;6.788;2024-03-17T14:17:30;3.90;;;1.95;;
41927;SDS011;27616;51.420;6.788;2024-03-17T14:19:56;5.05;;;2.08;;
41927;SDS011;27616;51.420;6.788;2024-03-17T14:22:21;5.03;;;1.92;;
41927;SDS011;27616;51.420;6.788;2024-03-17T14:24:47;4.07;;;1.70;;
41927;SDS011;27616;51.420;6.788;2024-03-17T14:27:15;4.80;;;2.08;;
41927;SDS011;27616;51.420;6.788;2024-03-17T14:29:41;4.97;;;2.28;;
41927;SDS011;27616;51.420;6.788;2024-03-17T14:32:08;2.88;;;1.80;;
41927;SDS011;27616;51.420;6.788;2024-03-17T14:34:33;12.45;;;5.88;;
41927;SDS011;27616;51.420;6.788;2024-03-17T14:37:03;17.35;;;6.85;;
41927;SDS011;27616;51.420;6.788;2024-03-17T14:39:29;3.03;;;1.92;;
41927;SDS011;27616;51.420;6.788;2024-03-17T14:41:55;3.20;;;2.13;;
41927;SDS011;27616;51.420;6.788;2024-03-17T14:44:21;4.72;;;1.58;;
41927;SDS011;27616;51.420;6.788;2024-03-17T14:46:48;4.00;;;1.75;;
41927;SDS011;27616;51.420;6.788;2024-03-17T14:49:17;3.38;;;1.70;;
41927;SDS011;27616;51.420;6.788;2024-03-17T14:51:43;5.53;;;1.75;;
41927;SDS011;27616;51.420;6.788;2024-03-17T14:54:09;4.50;;;2.00;;
41927;SDS011;27616;51.420;6.788;2024-03-17T14:56:35;3.25;;;1.73;;
41927;SDS011;27616;51.420;6.788;2024-03-17T14:59:01;3.33;;;1.65;;
41927;SDS011;27616;51.420;6.788;2024-03-17T15:01:26;4.65;;;1.98;;
41927;SDS011;27616;51.420;6.788;2024-03-17T15:03:55;4.82;;;1.90;;
41927;SDS011;27616;51.420;6.788;2024-03-17T15:06:21;4.07;;;2.05;;
41927;SDS011;27616;51.420;6.788;2024-03-17T15:08:46;4.32;;;1.85;;
41927;SDS011;27616;51.420;6.788;2024-03-17T15:11:12;3.08;;;1.80;;
41927;SDS011;27616;51.420;6.788;2024-03-17T15:13:37;5.15;;;1.83;;